Aviation Digital Data Service (ADDS)

Output produced by METARs form (1250 UTC 24 May 2019)
found at http://www.aviationweather.gov/metar/data/
 
KEWR 241125Z 2412/2518 30017G25KT P6SM SKC 
     FM241500 32022G31KT P6SM SCT040 
     FM242200 33014G22KT P6SM FEW040 
     FM250200 36007KT P6SM FEW040 FEW250 
     FM250600 VRB04KT P6SM FEW035 FEW250 
     FM251300 19007KT P6SM FEW040 SCT250